Time;durP1;ratioP1;P1;durP2;ratioP2;P2;SDS_P1;SDS_P2;PMS_P1;PMS_P2;Temp;Humidity;BMP_temperature;BMP_pressure;BME280_temperature;BME280_humidity;BME280_pressure;Samples;Min_cycle;Max_cycle;Signal;HPM_P1;HPM_P2
2022/03/17 00:00:01;;;;;;;;;;;11.40;99.90;;;;;;4982947;28;19929;-86
2022/03/17 00:02:27;;;;;;;;;;;11.40;99.90;;;;;;4983089;28;20055;-87
2022/03/17 00:04:52;;;;;;;;;;;11.40;99.90;;;;;;4983299;28;19917;-86
2022/03/17 00:07:18;;;;;;;;;;;11.40;99.90;;;;;;4982700;28;19977;-86
2022/03/17 00:09:44;;;;;;;;;;;11.30;99.90;;;;;;4983706;28;19924;-87
2022/03/17 00:12:10;;;;;;;;;;;11.30;99.90;;;;;;4983807;28;19906;-86
2022/03/17 00:14:35;;;;;;;;;;;11.20;99.90;;;;;;4982648;28;19910;-86
2022/03/17 00:17:01;;;;;;;;;;;11.30;99.90;;;;;;4982911;28;19906;-86
2022/03/17 00:19:27;;;;;;;;;;;11.20;99.90;;;;;;4983830;28;19929;-86
2022/03/17 00:21:52;;;;;;;;;;;11.20;99.90;;;;;;4983160;28;20102;-86
2022/03/17 00:24:18;;;;;;;;;;;11.20;99.90;;;;;;4983983;28;19912;-86
2022/03/17 00:26:43;;;;;;;;;;;11.20;99.90;;;;;;4984229;28;19921;-86
2022/03/17 00:29:09;;;;;;;;;;;11.20;99.90;;;;;;4983712;28;20102;-86
2022/03/17 00:31:37;;;;;;;;;;;11.20;99.90;;;;;;4981568;28;19949;-86
2022/03/17 00:34:06;;;;;;;;;;;11.20;99.90;;;;;;4982936;28;19940;-86
2022/03/17 00:36:35;;;;;;;;;;;11.10;99.90;;;;;;4983526;28;19911;-86
2022/03/17 00:39:04;;;;;;;;;;;11.10;99.90;;;;;;4983534;28;19915;-86
2022/03/17 00:41:29;;;;;;;;;;;11.00;99.90;;;;;;4983743;28;19906;-86
2022/03/17 00:43:55;;;;;;;;;;;11.00;99.90;;;;;;4982398;28;19906;-86
2022/03/17 00:46:20;;;;;;;;;;;11.00;99.90;;;;;;4982612;28;19979;-86
2022/03/17 00:48:46;;;;;;;;;;;11.00;99.90;;;;;;4983800;28;19910;-86
2022/03/17 00:51:11;;;;;;;;;;;10.90;99.90;;;;;;4983232;28;19913;-86
2022/03/17 00:53:37;;;;;;;;;;;10.90;99.90;;;;;;4982939;28;19952;-86
2022/03/17 00:56:02;;;;;;;;;;;10.90;99.90;;;;;;4983060;28;20194;-86
2022/03/17 00:58:29;;;;;;;;;;;11.00;99.90;;;;;;4982581;28;19913;-86
2022/03/17 01:00:54;;;;;;;;;;;10.90;99.90;;;;;;4981994;28;19990;-86
2022/03/17 01:03:20;;;;;;;;;;;10.90;99.90;;;;;;4982969;28;19925;-86
2022/03/17 01:05:45;;;;;;;;;;;10.80;99.90;;;;;;4982678;28;19922;-86
2022/03/17 01:08:11;;;;;;;;;;;10.80;99.90;;;;;;4982746;28;19918;-86
2022/03/17 01:10:38;;;;;;;;;;;10.80;99.90;;;;;;4982752;28;19906;-86
2022/03/17 01:13:05;;;;;;;;;;;10.80;99.90;;;;;;4981347;28;19977;-86
2022/03/17 01:15:30;;;;;;;;;;;10.80;99.90;;;;;;4982357;28;19922;-86
2022/03/17 01:17:56;;;;;;;;;;;10.70;99.90;;;;;;4982114;28;19907;-86
2022/03/17 01:20:21;;;;;;;;;;;10.70;99.90;;;;;;4981467;28;19981;-86
2022/03/17 01:22:47;;;;;;;;;;;10.80;99.90;;;;;;4982073;28;19906;-86
2022/03/17 01:25:13;;;;;;;;;;;10.70;99.90;;;;;;4981828;28;19913;-86
2022/03/17 01:27:38;;;;;;;;;;;10.80;99.90;;;;;;4965396;28;19913;-86
2022/03/17 01:30:07;;;;;;;;;;;10.70;99.90;;;;;;4981995;28;19953;-86
2022/03/17 01:32:32;;;;;;;;;;;10.60;99.90;;;;;;4982637;28;19953;-86
2022/03/17 01:34:59;;;;;;;;;;;10.60;99.90;;;;;;4982283;28;19988;-87
2022/03/17 01:37:24;;;;;;;;;;;10.60;99.90;;;;;;4982227;28;19910;-86
2022/03/17 01:39:50;;;;;;;;;;;10.60;99.90;;;;;;4982599;28;19913;-86
2022/03/17 01:42:15;;;;;;;;;;;10.50;99.90;;;;;;4982136;28;19989;-86
2022/03/17 01:44:41;;;;;;;;;;;10.50;99.90;;;;;;4980939;28;20017;-86
2022/03/17 01:49:51;;;;;;;;;;;10.60;99.90;;;;;;4982515;28;19913;-86
2022/03/17 01:52:16;;;;;;;;;;;10.50;99.90;;;;;;4981305;28;19976;-86
2022/03/17 01:54:42;;;;;;;;;;;10.50;99.90;;;;;;4982162;28;19937;-86
2022/03/17 01:57:08;;;;;;;;;;;10.50;99.90;;;;;;4964861;28;20350;-86
2022/03/17 01:59:35;;;;;;;;;;;10.40;99.90;;;;;;4982119;28;19936;-86
2022/03/17 02:02:04;;;;;;;;;;;10.40;99.90;;;;;;4981866;28;19913;-86
2022/03/17 02:04:30;;;;;;;;;;;10.30;99.90;;;;;;4980711;28;19929;-86
2022/03/17 02:06:56;;;;;;;;;;;10.30;99.90;;;;;;4980450;28;20265;-86
2022/03/17 02:09:26;;;;;;;;;;;10.30;99.90;;;;;;4981598;28;19961;-86
2022/03/17 02:14:46;;;;;;;;;;;10.30;99.90;;;;;;4981611;28;19921;-86
2022/03/17 02:17:12;;;;;;;;;;;10.30;99.90;;;;;;4981806;28;19906;-86
2022/03/17 02:19:37;;;;;;;;;;;10.30;99.90;;;;;;4981563;28;19961;-86
2022/03/17 02:22:03;;;;;;;;;;;10.20;99.90;;;;;;4981458;28;19906;-86
2022/03/17 02:27:13;;;;;;;;;;;10.20;99.90;;;;;;4981565;28;19980;-86
2022/03/17 02:29:38;;;;;;;;;;;10.10;99.90;;;;;;4980674;28;19938;-86
2022/03/17 02:32:04;;;;;;;;;;;10.10;99.90;;;;;;4960932;28;19965;-86
2022/03/17 02:34:30;;;;;;;;;;;10.10;99.90;;;;;;4980738;28;20175;-86
2022/03/17 02:36:56;;;;;;;;;;;10.10;99.90;;;;;;4981872;28;19907;-86
2022/03/17 02:39:22;;;;;;;;;;;10.10;99.90;;;;;;4981592;28;19948;-86
2022/03/17 02:41:47;;;;;;;;;;;10.10;99.90;;;;;;4980145;28;19906;-86
2022/03/17 02:44:13;;;;;;;;;;;10.00;99.90;;;;;;4981437;28;19989;-86
2022/03/17 02:46:39;;;;;;;;;;;10.00;99.90;;;;;;4981711;28;20195;-86
2022/03/17 02:49:04;;;;;;;;;;;10.00;99.90;;;;;;4980540;28;20367;-86
2022/03/17 02:51:30;;;;;;;;;;;10.00;99.90;;;;;;4981798;28;19973;-86
2022/03/17 02:53:56;;;;;;;;;;;10.10;99.90;;;;;;4981392;28;20129;-86
2022/03/17 02:56:21;;;;;;;;;;;10.00;99.90;;;;;;4963623;28;19949;-86
2022/03/17 02:58:47;;;;;;;;;;;10.00;99.90;;;;;;4982403;28;19929;-86
2022/03/17 03:01:12;;;;;;;;;;;10.00;99.90;;;;;;4980685;28;19912;-86
2022/03/17 03:03:38;;;;;;;;;;;10.00;99.90;;;;;;4981762;28;19907;-86
2022/03/17 03:06:04;;;;;;;;;;;9.90;99.90;;;;;;4979761;28;20208;-86
2022/03/17 03:08:29;;;;;;;;;;;9.90;99.90;;;;;;4980432;28;19918;-86
2022/03/17 03:10:57;;;;;;;;;;;9.80;99.90;;;;;;4964370;28;19913;-86
2022/03/17 03:13:22;;;;;;;;;;;9.80;99.90;;;;;;4979942;28;20086;-86
2022/03/17 03:15:50;;;;;;;;;;;9.70;99.90;;;;;;4980906;28;19914;-86
2022/03/17 03:18:17;;;;;;;;;;;9.80;99.90;;;;;;4981554;28;19912;-86
2022/03/17 03:20:43;;;;;;;;;;;9.70;99.90;;;;;;4964133;28;19949;-86
2022/03/17 03:23:08;;;;;;;;;;;9.70;99.90;;;;;;4983486;28;19933;-86
2022/03/17 03:25:34;;;;;;;;;;;9.60;99.90;;;;;;4985546;28;20050;-86
2022/03/17 03:28:06;;;;;;;;;;;9.60;99.90;;;;;;4984787;28;19953;-86
2022/03/17 03:30:32;;;;;;;;;;;9.60;99.90;;;;;;4984011;28;19914;-86
2022/03/17 03:32:58;;;;;;;;;;;9.60;99.90;;;;;;4984910;28;19952;-86
2022/03/17 03:38:08;;;;;;;;;;;9.60;99.90;;;;;;4984958;28;20179;-86
2022/03/17 03:40:33;;;;;;;;;;;9.50;99.90;;;;;;4985151;28;20108;-86
2022/03/17 03:42:59;;;;;;;;;;;9.50;99.90;;;;;;4983804;28;19929;-86
2022/03/17 03:45:25;;;;;;;;;;;9.50;99.90;;;;;;4984120;28;19906;-86
2022/03/17 03:47:50;;;;;;;;;;;9.50;99.90;;;;;;4984660;28;20225;-86
2022/03/17 03:50:17;;;;;;;;;;;9.50;99.90;;;;;;4984136;28;19953;-86
2022/03/17 03:52:43;;;;;;;;;;;9.50;99.90;;;;;;4984824;28;20332;-86
2022/03/17 03:55:09;;;;;;;;;;;9.50;99.90;;;;;;4984117;28;19913;-86
2022/03/17 03:57:35;;;;;;;;;;;9.40;99.90;;;;;;4983197;28;19906;-86
2022/03/17 04:00:00;;;;;;;;;;;9.40;99.90;;;;;;4983598;28;20319;-86
2022/03/17 04:02:26;;;;;;;;;;;9.40;99.90;;;;;;4983980;28;19906;-86
2022/03/17 04:04:52;;;;;;;;;;;9.40;99.90;;;;;;4984662;28;19910;-86
2022/03/17 04:07:18;;;;;;;;;;;9.40;99.90;;;;;;4966649;28;19952;-86
2022/03/17 04:09:43;;;;;;;;;;;9.40;99.90;;;;;;4984135;28;19920;-86
2022/03/17 04:12:13;;;;;;;;;;;9.40;99.90;;;;;;4984621;28;19954;-86
2022/03/17 04:14:39;;;;;;;;;;;9.40;99.90;;;;;;4984060;28;19945;-86
2022/03/17 04:17:04;;;;;;;;;;;9.30;99.90;;;;;;4966417;28;20068;-86
2022/03/17 04:19:30;;;;;;;;;;;9.30;99.90;;;;;;4966627;28;19981;-86
2022/03/17 04:21:56;;;;;;;;;;;9.30;99.90;;;;;;4982846;28;20277;-86
2022/03/17 04:24:22;;;;;;;;;;;9.30;99.90;;;;;;4983901;28;19907;-86
2022/03/17 04:26:48;;;;;;;;;;;9.30;99.90;;;;;;4983662;28;19953;-86
2022/03/17 04:29:14;;;;;;;;;;;9.30;99.90;;;;;;4982198;28;20107;-86
2022/03/17 04:31:40;;;;;;;;;;;9.30;99.90;;;;;;4982508;28;19906;-86
2022/03/17 04:34:06;;;;;;;;;;;9.20;99.90;;;;;;4982648;28;20210;-86
2022/03/17 04:36:32;;;;;;;;;;;9.20;99.90;;;;;;4983277;28;19906;-86
2022/03/17 04:38:58;;;;;;;;;;;9.20;99.90;;;;;;4982334;28;19992;-86
2022/03/17 04:41:23;;;;;;;;;;;9.20;99.90;;;;;;4981926;28;19910;-86
2022/03/17 04:43:49;;;;;;;;;;;9.20;99.90;;;;;;4965616;28;19907;-86
2022/03/17 04:46:14;;;;;;;;;;;9.20;99.90;;;;;;4981471;28;20151;-86
2022/03/17 04:48:41;;;;;;;;;;;9.10;99.90;;;;;;4983490;28;19905;-86
2022/03/17 04:51:07;;;;;;;;;;;9.10;99.90;;;;;;4981983;28;19989;-86
2022/03/17 04:53:33;;;;;;;;;;;9.20;99.90;;;;;;4982650;28;19910;-86
2022/03/17 04:55:59;;;;;;;;;;;9.10;99.90;;;;;;4983147;28;19906;-86
2022/03/17 04:58:24;;;;;;;;;;;9.10;99.90;;;;;;4983653;28;19906;-86
2022/03/17 05:00:53;;;;;;;;;;;9.10;99.90;;;;;;4982701;28;19906;-86
2022/03/17 05:03:19;;;;;;;;;;;9.10;99.90;;;;;;4983114;28;19914;-86
2022/03/17 05:05:45;;;;;;;;;;;9.10;99.90;;;;;;4983345;28;19960;-86
2022/03/17 05:08:11;;;;;;;;;;;9.10;99.90;;;;;;4982731;28;20038;-86
2022/03/17 05:10:37;;;;;;;;;;;9.10;99.90;;;;;;4983106;28;19905;-86
2022/03/17 05:13:03;;;;;;;;;;;9.00;99.90;;;;;;4982269;28;19914;-86
2022/03/17 05:15:29;;;;;;;;;;;9.10;99.90;;;;;;4982264;28;19906;-86
2022/03/17 05:17:54;;;;;;;;;;;9.00;99.90;;;;;;4965401;28;19906;-86
2022/03/17 05:20:20;;;;;;;;;;;9.00;99.90;;;;;;4983112;28;19948;-86
2022/03/17 05:22:45;;;;;;;;;;;9.00;99.90;;;;;;4982314;28;19906;-86
2022/03/17 05:25:11;;;;;;;;;;;9.00;99.90;;;;;;4982100;28;19906;-86
2022/03/17 05:27:40;;;;;;;;;;;9.00;99.90;;;;;;4980729;28;19981;-86
2022/03/17 05:30:06;;;;;;;;;;;9.00;99.90;;;;;;4981865;28;19913;-86
2022/03/17 05:32:32;;;;;;;;;;;8.90;99.90;;;;;;4981443;28;19973;-86
2022/03/17 05:34:58;;;;;;;;;;;8.90;99.90;;;;;;4981593;28;20070;-86
2022/03/17 05:37:23;;;;;;;;;;;8.90;99.90;;;;;;4982461;28;19912;-86
2022/03/17 05:39:49;;;;;;;;;;;8.90;99.90;;;;;;4982239;28;20011;-86
2022/03/17 05:42:15;;;;;;;;;;;8.90;99.90;;;;;;4982343;28;20345;-86
2022/03/17 05:44:40;;;;;;;;;;;8.90;99.90;;;;;;4964679;28;19941;-86
2022/03/17 05:47:06;;;;;;;;;;;8.90;99.90;;;;;;4981732;28;20408;-86
2022/03/17 05:49:32;;;;;;;;;;;8.90;99.90;;;;;;4982030;28;20399;-86
2022/03/17 05:51:57;;;;;;;;;;;8.90;99.90;;;;;;4982165;28;19913;-86
2022/03/17 05:54:23;;;;;;;;;;;8.90;99.90;;;;;;4980770;28;20193;-86
2022/03/17 05:56:48;;;;;;;;;;;8.90;99.90;;;;;;4982216;28;19913;-86
2022/03/17 05:59:14;;;;;;;;;;;8.90;99.90;;;;;;4981765;28;19932;-86
2022/03/17 06:01:39;;;;;;;;;;;8.80;99.90;;;;;;4981038;28;20181;-87
2022/03/17 06:04:05;;;;;;;;;;;8.70;99.90;;;;;;4981645;28;20066;-86
2022/03/17 06:06:30;;;;;;;;;;;8.70;99.90;;;;;;4981568;28;19987;-86
2022/03/17 06:08:56;;;;;;;;;;;8.70;99.90;;;;;;4981408;28;20273;-87
2022/03/17 06:11:21;;;;;;;;;;;8.70;99.90;;;;;;4964263;28;19906;-86
2022/03/17 06:13:47;;;;;;;;;;;8.80;99.90;;;;;;4982077;28;19907;-86
2022/03/17 06:16:13;;;;;;;;;;;8.70;99.90;;;;;;4957178;28;19917;-86
2022/03/17 06:18:40;;;;;;;;;;;8.70;99.90;;;;;;4946236;29;19934;-86
2022/03/17 06:21:05;;;;;;;;;;;8.60;99.90;;;;;;4958819;28;19977;-86
2022/03/17 06:23:31;;;;;;;;;;;8.70;99.90;;;;;;4962725;28;19914;-87
2022/03/17 06:25:57;;;;;;;;;;;8.70;99.90;;;;;;4959018;28;19914;-86
2022/03/17 06:28:22;;;;;;;;;;;8.70;99.90;;;;;;4958881;28;19911;-88
2022/03/17 06:30:48;;;;;;;;;;;8.60;99.90;;;;;;4936343;29;20058;-88
2022/03/17 06:33:14;;;;;;;;;;;8.60;99.90;;;;;;4948025;28;19914;-89
2022/03/17 06:35:39;;;;;;;;;;;8.60;99.90;;;;;;4950381;28;20033;-88
2022/03/17 06:38:06;;;;;;;;;;;8.60;99.90;;;;;;4952820;28;19949;-91
2022/03/17 06:40:32;;;;;;;;;;;8.60;99.90;;;;;;4952784;28;19937;-88
2022/03/17 06:43:01;;;;;;;;;;;8.60;99.90;;;;;;4951779;28;20376;-89
2022/03/17 06:45:27;;;;;;;;;;;8.60;99.90;;;;;;4952005;28;19914;-89
2022/03/17 06:47:53;;;;;;;;;;;8.60;99.90;;;;;;4954262;28;19970;-88
2022/03/17 06:50:21;;;;;;;;;;;8.60;99.90;;;;;;4934733;28;19934;-88
2022/03/17 06:52:46;;;;;;;;;;;8.60;99.90;;;;;;4952229;28;19914;-89
2022/03/17 06:55:12;;;;;;;;;;;8.60;99.90;;;;;;4952443;28;19922;-88
2022/03/17 06:57:38;;;;;;;;;;;8.60;99.90;;;;;;4954328;28;19910;-88
2022/03/17 07:00:08;;;;;;;;;;;8.50;99.90;;;;;;4955504;28;20002;-88
2022/03/17 07:02:33;;;;;;;;;;;8.60;99.90;;;;;;4938669;28;19910;-88
2022/03/17 07:04:59;;;;;;;;;;;8.50;99.90;;;;;;4955971;28;20387;-89
2022/03/17 07:07:25;;;;;;;;;;;8.60;99.90;;;;;;4956057;28;19918;-89
2022/03/17 07:09:51;;;;;;;;;;;8.60;99.90;;;;;;4956011;28;19930;-89
2022/03/17 07:12:17;;;;;;;;;;;8.60;99.90;;;;;;4955959;28;19916;-88
2022/03/17 07:14:42;;;;;;;;;;;8.60;99.90;;;;;;4955794;28;19910;-88
2022/03/17 07:17:08;;;;;;;;;;;8.70;99.90;;;;;;4938433;28;19946;-88
2022/03/17 07:19:34;;;;;;;;;;;8.60;99.90;;;;;;4955727;28;19917;-89
2022/03/17 07:22:00;;;;;;;;;;;8.70;99.90;;;;;;4955803;28;19910;-89
2022/03/17 07:24:26;;;;;;;;;;;8.70;99.90;;;;;;4949553;28;19911;-88
2022/03/17 07:26:51;;;;;;;;;;;8.70;99.90;;;;;;4955721;28;19919;-89
2022/03/17 07:29:17;;;;;;;;;;;8.70;99.90;;;;;;4955459;28;19962;-89
2022/03/17 07:31:43;;;;;;;;;;;8.70;99.90;;;;;;4951065;28;20383;-89
2022/03/17 07:34:09;;;;;;;;;;;8.70;99.90;;;;;;4950209;28;20006;-89
2022/03/17 07:36:34;;;;;;;;;;;8.70;99.90;;;;;;4950782;28;20009;-89
2022/03/17 07:39:03;;;;;;;;;;;8.70;99.90;;;;;;4953542;28;19960;-88
2022/03/17 07:41:29;;;;;;;;;;;8.70;99.90;;;;;;4955835;28;19945;-89
2022/03/17 07:43:55;;;;;;;;;;;8.70;99.90;;;;;;4953718;28;20380;-89
2022/03/17 07:46:20;;;;;;;;;;;8.70;99.90;;;;;;4950829;28;19926;-88
2022/03/17 07:48:46;;;;;;;;;;;8.80;99.90;;;;;;4951989;28;19973;-88
2022/03/17 07:51:11;;;;;;;;;;;8.90;99.90;;;;;;4953660;28;20387;-88
2022/03/17 07:53:38;;;;;;;;;;;8.90;99.90;;;;;;4954562;28;20299;-89
2022/03/17 07:56:04;;;;;;;;;;;9.00;99.90;;;;;;4936791;28;20338;-89
2022/03/17 07:58:32;;;;;;;;;;;9.00;99.90;;;;;;4954134;28;20391;-88
2022/03/17 08:00:59;;;;;;;;;;;9.10;99.90;;;;;;4953683;28;19957;-88
2022/03/17 08:03:25;;;;;;;;;;;9.00;99.90;;;;;;4954387;28;20000;-89
2022/03/17 08:05:51;;;;;;;;;;;9.10;99.90;;;;;;4937692;28;19973;-88
2022/03/17 08:08:21;;;;;;;;;;;9.10;99.90;;;;;;4936317;28;19929;-89
2022/03/17 08:10:47;;;;;;;;;;;9.10;99.90;;;;;;4954889;28;19981;-88
2022/03/17 08:13:12;;;;;;;;;;;9.10;99.90;;;;;;4952298;28;20450;-88
2022/03/17 08:15:39;;;;;;;;;;;9.20;99.90;;;;;;4954753;28;20132;-89
2022/03/17 08:18:06;;;;;;;;;;;9.20;99.90;;;;;;4954673;28;20001;-89
2022/03/17 08:20:32;;;;;;;;;;;9.20;99.90;;;;;;4953442;28;19917;-88
2022/03/17 08:22:58;;;;;;;;;;;9.20;99.90;;;;;;4954750;28;19911;-88
2022/03/17 08:25:23;;;;;;;;;;;9.30;99.90;;;;;;4955061;28;19914;-88
2022/03/17 08:27:52;;;;;;;;;;;9.40;99.90;;;;;;4954658;28;20511;-88
2022/03/17 08:30:18;;;;;;;;;;;9.40;99.90;;;;;;4937078;28;20573;-88
2022/03/17 08:32:43;;;;;;;;;;;9.50;99.90;;;;;;4954762;28;19954;-88
2022/03/17 08:35:10;;;;;;;;;;;9.50;99.90;;;;;;4960838;28;20234;-89
2022/03/17 08:37:39;;;;;;;;;;;9.50;99.90;;;;;;4972950;28;19910;-89
2022/03/17 08:40:05;;;;;;;;;;;9.60;99.90;;;;;;4946699;28;20380;-89
2022/03/17 08:42:31;;;;;;;;;;;9.60;99.90;;;;;;4954205;28;20013;-88
2022/03/17 08:44:56;;;;;;;;;;;9.50;99.90;;;;;;4953841;28;19910;-88
2022/03/17 08:50:07;;;;;;;;;;;9.70;99.90;;;;;;4954559;28;20132;-89
2022/03/17 08:52:32;;;;;;;;;;;9.70;99.90;;;;;;4954135;28;20070;-91
2022/03/17 08:54:58;;;;;;;;;;;9.80;99.90;;;;;;4950002;28;19950;-89
2022/03/17 08:57:23;;;;;;;;;;;9.80;99.90;;;;;;4953852;28;19911;-89
2022/03/17 08:59:49;;;;;;;;;;;9.80;99.90;;;;;;4953504;28;20009;-88
2022/03/17 09:02:15;;;;;;;;;;;10.00;99.90;;;;;;4953843;28;19911;-89
2022/03/17 09:04:40;;;;;;;;;;;10.00;99.90;;;;;;4953705;28;19910;-89
2022/03/17 09:07:06;;;;;;;;;;;10.00;99.90;;;;;;4953999;28;20269;-89
2022/03/17 09:09:33;;;;;;;;;;;10.10;99.90;;;;;;4953416;28;20003;-89
2022/03/17 09:11:58;;;;;;;;;;;10.20;99.90;;;;;;4949648;28;19914;-89
2022/03/17 09:14:25;;;;;;;;;;;10.20;99.90;;;;;;4951899;28;19910;-88
2022/03/17 09:16:51;;;;;;;;;;;10.10;99.90;;;;;;4953577;28;19911;-88
2022/03/17 09:19:19;;;;;;;;;;;10.10;99.90;;;;;;4953231;28;19914;-88
2022/03/17 09:21:45;;;;;;;;;;;10.20;99.90;;;;;;4953729;28;19926;-89
2022/03/17 09:24:10;;;;;;;;;;;10.20;99.90;;;;;;4951353;28;20487;-89
2022/03/17 09:26:36;;;;;;;;;;;10.30;99.90;;;;;;4950892;28;19977;-89
2022/03/17 09:29:02;;;;;;;;;;;10.40;99.90;;;;;;4952019;28;20308;-89
2022/03/17 09:31:27;;;;;;;;;;;10.40;99.90;;;;;;4951935;28;19911;-89
2022/03/17 09:33:53;;;;;;;;;;;10.50;99.90;;;;;;4951661;28;19922;-88
2022/03/17 09:36:19;;;;;;;;;;;10.60;99.90;;;;;;4953299;28;19916;-89
2022/03/17 09:39:39;;;;;;;;;;;10.60;99.90;;;;;;4935856;28;19915;-88
2022/03/17 09:41:33;;;;;;;;;;;10.70;99.90;;;;;;4952957;28;20402;-89
2022/03/17 09:43:59;;;;;;;;;;;10.70;99.90;;;;;;4935547;29;20005;-90
2022/03/17 09:46:26;;;;;;;;;;;10.80;99.90;;;;;;4948757;28;20013;-89
2022/03/17 09:48:55;;;;;;;;;;;10.80;99.90;;;;;;4948680;28;20376;-89
2022/03/17 09:51:22;;;;;;;;;;;10.90;99.90;;;;;;4951381;28;20181;-89
2022/03/17 09:53:48;;;;;;;;;;;10.90;99.90;;;;;;4953078;28;20386;-89
2022/03/17 09:56:13;;;;;;;;;;;11.00;99.90;;;;;;4948452;28;19919;-89
2022/03/17 09:58:39;;;;;;;;;;;11.00;99.90;;;;;;4950346;28;20372;-88
2022/03/17 10:01:06;;;;;;;;;;;11.00;99.90;;;;;;4935177;28;19995;-89
2022/03/17 10:03:34;;;;;;;;;;;11.00;99.90;;;;;;4952908;28;19918;-89
2022/03/17 10:06:02;;;;;;;;;;;11.00;99.90;;;;;;4952717;28;20013;-89
2022/03/17 10:08:28;;;;;;;;;;;10.90;99.90;;;;;;4953245;28;20327;-89
2022/03/17 10:10:53;;;;;;;;;;;11.10;99.90;;;;;;4953172;28;19915;-89
2022/03/17 10:13:22;;;;;;;;;;;11.10;99.90;;;;;;4952902;28;19962;-88
2022/03/17 10:16:04;;;;;;;;;;;11.20;99.90;;;;;;4952466;28;19922;-89
2022/03/17 10:18:33;;;;;;;;;;;11.30;99.90;;;;;;4952648;28;19962;-89
2022/03/17 10:21:06;;;;;;;;;;;11.30;99.90;;;;;;4935394;29;20244;-89
2022/03/17 10:23:32;;;;;;;;;;;11.30;99.90;;;;;;4970275;28;20560;-89
2022/03/17 10:25:57;;;;;;;;;;;11.30;99.90;;;;;;4971210;28;20094;-89
2022/03/17 10:28:26;;;;;;;;;;;11.30;99.90;;;;;;4971069;28;19910;-89
2022/03/17 10:31:03;;;;;;;;;;;11.20;99.90;;;;;;4968946;28;20008;-88
2022/03/17 10:33:29;;;;;;;;;;;11.10;99.90;;;;;;4969564;28;20423;-89
2022/03/17 10:35:54;;;;;;;;;;;11.20;99.90;;;;;;4969660;28;20074;-88
2022/03/17 10:38:22;;;;;;;;;;;11.20;99.90;;;;;;4971098;28;19914;-89
2022/03/17 10:41:04;;;;;;;;;;;11.30;99.90;;;;;;4970825;28;19916;-89
2022/03/17 10:43:29;;;;;;;;;;;11.30;99.90;;;;;;4958030;28;19910;-89
2022/03/17 10:46:09;;;;;;;;;;;11.30;99.90;;;;;;4952101;28;20395;-88
2022/03/17 10:48:35;;;;;;;;;;;11.20;99.90;;;;;;4952441;28;19972;-89
2022/03/17 10:51:00;;;;;;;;;;;11.30;99.90;;;;;;4950579;28;20406;-89
2022/03/17 10:53:27;;;;;;;;;;;11.30;99.90;;;;;;4970958;28;20453;-89
2022/03/17 10:55:52;;;;;;;;;;;11.40;99.90;;;;;;4971239;28;20178;-89
2022/03/17 10:58:19;;;;;;;;;;;11.50;99.90;;;;;;4971105;28;20500;-89
2022/03/17 11:00:49;;;;;;;;;;;11.50;99.90;;;;;;4969340;28;19917;-89
2022/03/17 11:03:14;;;;;;;;;;;11.40;99.90;;;;;;4953243;28;19980;-89
2022/03/17 11:05:40;;;;;;;;;;;11.30;99.90;;;;;;4970550;28;20438;-91
2022/03/17 11:08:09;;;;;;;;;;;11.30;99.90;;;;;;4953111;28;19922;-90
2022/03/17 11:10:41;;;;;;;;;;;11.40;99.90;;;;;;4952734;28;19911;-88
2022/03/17 11:13:11;;;;;;;;;;;11.50;99.90;;;;;;4958640;28;19917;-88
2022/03/17 11:15:41;;;;;;;;;;;11.50;99.90;;;;;;4972968;28;20382;-89
2022/03/17 11:18:18;;;;;;;;;;;11.40;99.90;;;;;;4972048;28;19921;-88
2022/03/17 11:20:44;;;;;;;;;;;11.50;99.90;;;;;;4971119;28;20074;-89
2022/03/17 11:23:20;;;;;;;;;;;11.50;99.90;;;;;;4970601;28;20363;-89
2022/03/17 11:25:56;;;;;;;;;;;11.60;99.90;;;;;;4969391;28;20421;-89
2022/03/17 11:28:36;;;;;;;;;;;11.50;99.90;;;;;;4951626;28;19911;-89
2022/03/17 11:31:05;;;;;;;;;;;11.50;99.90;;;;;;4951639;28;19942;-89
2022/03/17 11:33:32;;;;;;;;;;;11.50;99.90;;;;;;4952185;28;20029;-89
2022/03/17 11:36:01;;;;;;;;;;;11.60;99.90;;;;;;4952002;28;19915;-88
2022/03/17 11:38:32;;;;;;;;;;;11.60;99.90;;;;;;4970272;28;19910;-88
2022/03/17 11:41:08;;;;;;;;;;;11.60;99.90;;;;;;4952006;28;19911;-88
2022/03/17 11:43:46;;;;;;;;;;;11.70;99.90;;;;;;4953565;28;19915;-88
2022/03/17 11:46:12;;;;;;;;;;;11.70;99.90;;;;;;4937991;28;20298;-87
2022/03/17 11:48:38;;;;;;;;;;;11.70;99.90;;;;;;4955261;28;19910;-87
2022/03/17 11:51:05;;;;;;;;;;;11.90;99.90;;;;;;4963988;28;19937;-96
2022/03/17 11:53:47;;;;;;;;;;;11.80;99.90;;;;;;4974027;28;19917;-88
2022/03/17 11:56:43;;;;;;;;;;;11.90;99.90;;;;;;4973787;28;19945;-88
2022/03/17 11:59:09;;;;;;;;;;;11.90;99.90;;;;;;4956569;28;19917;-89
2022/03/17 12:01:42;;;;;;;;;;;12.00;99.90;;;;;;4956045;28;19914;-89
2022/03/17 12:04:08;;;;;;;;;;;11.90;99.90;;;;;;4974130;28;19910;-88
2022/03/17 12:06:35;;;;;;;;;;;11.90;99.90;;;;;;4973161;28;20402;-88
2022/03/17 12:09:11;;;;;;;;;;;11.90;99.90;;;;;;4973302;28;19925;-88
2022/03/17 12:11:38;;;;;;;;;;;12.00;99.90;;;;;;4973578;28;19911;-88
2022/03/17 12:14:10;;;;;;;;;;;12.00;99.90;;;;;;4971764;28;20315;-88
2022/03/17 12:16:39;;;;;;;;;;;12.00;99.90;;;;;;4973299;28;19961;-88
2022/03/17 12:19:05;;;;;;;;;;;12.20;99.90;;;;;;4973106;28;20020;-88
2022/03/17 12:21:57;;;;;;;;;;;12.30;99.90;;;;;;4971650;28;19958;-88
2022/03/17 12:24:41;;;;;;;;;;;12.40;99.90;;;;;;4952682;28;19921;-88
2022/03/17 12:27:12;;;;;;;;;;;12.40;99.90;;;;;;4955602;28;19918;-88
2022/03/17 12:29:38;;;;;;;;;;;12.50;99.90;;;;;;4972619;28;19914;-88
2022/03/17 12:32:04;;;;;;;;;;;12.30;99.90;;;;;;4956023;28;20280;-88
2022/03/17 12:34:30;;;;;;;;;;;12.20;99.90;;;;;;4972859;28;19910;-89
2022/03/17 12:36:59;;;;;;;;;;;12.30;99.90;;;;;;4955639;28;19910;-89
2022/03/17 12:39:29;;;;;;;;;;;12.30;99.90;;;;;;4972772;28;19910;-89
2022/03/17 12:41:55;;;;;;;;;;;12.30;99.90;;;;;;4972655;28;19941;-89
2022/03/17 12:44:22;;;;;;;;;;;12.20;99.90;;;;;;4971219;28;20079;-88
2022/03/17 12:46:47;;;;;;;;;;;12.30;99.90;;;;;;4971256;28;19922;-89
2022/03/17 12:49:13;;;;;;;;;;;12.30;99.90;;;;;;4973180;28;19917;-89
2022/03/17 12:51:39;;;;;;;;;;;12.20;99.90;;;;;;4930573;29;19917;-89
2022/03/17 12:54:04;;;;;;;;;;;12.30;99.90;;;;;;4953841;28;19911;-88
2022/03/17 12:56:30;;;;;;;;;;;12.30;99.90;;;;;;4953833;28;20027;-89
2022/03/17 12:59:03;;;;;;;;;;;12.40;99.90;;;;;;4936471;29;19915;-89
2022/03/17 13:01:29;;;;;;;;;;;12.30;99.90;;;;;;4953814;28;20363;-89
2022/03/17 13:03:54;;;;;;;;;;;12.30;99.90;;;;;;4954205;28;19910;-89
2022/03/17 13:09:10;;;;;;;;;;;12.40;99.90;;;;;;4955989;28;20322;-89
2022/03/17 13:14:20;;;;;;;;;;;12.50;99.90;;;;;;4972419;28;20402;-89
2022/03/17 13:16:46;;;;;;;;;;;12.40;99.90;;;;;;4972184;28;19910;-89
2022/03/17 13:19:11;;;;;;;;;;;12.40;99.90;;;;;;4972095;28;19910;-89
2022/03/17 13:21:38;;;;;;;;;;;12.60;99.90;;;;;;4954675;28;20308;-89
2022/03/17 13:24:15;;;;;;;;;;;12.60;99.90;;;;;;4972177;28;20013;-89
2022/03/17 13:26:41;;;;;;;;;;;12.60;99.90;;;;;;4972057;28;19918;-89
2022/03/17 13:29:06;;;;;;;;;;;12.50;99.90;;;;;;4954365;28;19954;-89
2022/03/17 13:31:36;;;;;;;;;;;12.60;99.90;;;;;;4954496;28;19946;-89
2022/03/17 13:34:02;;;;;;;;;;;12.70;99.90;;;;;;4971932;28;19957;-89
2022/03/17 13:36:46;;;;;;;;;;;12.70;99.90;;;;;;4970818;28;19914;-89
2022/03/17 13:39:12;;;;;;;;;;;12.80;99.90;;;;;;4971764;28;19917;-89
2022/03/17 13:41:37;;;;;;;;;;;12.80;99.90;;;;;;4970417;28;19914;-90
2022/03/17 13:44:04;;;;;;;;;;;12.70;99.90;;;;;;4971376;28;19910;-89
2022/03/17 13:46:37;;;;;;;;;;;12.60;99.90;;;;;;4959665;28;20017;-89
2022/03/17 13:49:12;;;;;;;;;;;12.60;99.90;;;;;;4953541;28;19910;-89
2022/03/17 13:51:38;;;;;;;;;;;12.60;99.90;;;;;;4953432;28;20005;-89
2022/03/17 13:54:04;;;;;;;;;;;12.60;99.90;;;;;;4953338;28;19910;-89
2022/03/17 13:56:29;;;;;;;;;;;12.70;99.90;;;;;;4953125;28;19938;-89
2022/03/17 13:58:58;;;;;;;;;;;12.60;99.90;;;;;;4948062;28;19911;-89
2022/03/17 14:01:25;;;;;;;;;;;12.60;99.90;;;;;;4963406;28;20000;-90
2022/03/17 14:03:51;;;;;;;;;;;12.50;99.90;;;;;;4953956;28;20354;-89
2022/03/17 14:06:17;;;;;;;;;;;12.50;99.90;;;;;;4970451;28;19918;-89
2022/03/17 14:08:44;;;;;;;;;;;12.40;99.90;;;;;;4970028;28;19929;-89
2022/03/17 14:11:11;;;;;;;;;;;12.30;99.90;;;;;;4953915;28;20113;-89
2022/03/17 14:13:38;;;;;;;;;;;12.30;99.90;;;;;;4969563;28;19910;-89
2022/03/17 14:16:04;;;;;;;;;;;12.40;99.90;;;;;;4971733;28;19916;-89
2022/03/17 14:18:30;;;;;;;;;;;12.30;99.90;;;;;;4971500;28;20008;-89
2022/03/17 14:20:58;;;;;;;;;;;12.20;99.90;;;;;;4971076;28;19910;-89
2022/03/17 14:26:12;;;;;;;;;;;12.00;99.90;;;;;;4971477;28;19941;-89
2022/03/17 14:28:38;;;;;;;;;;;12.00;99.90;;;;;;4970513;28;19914;-89
2022/03/17 14:31:03;;;;;;;;;;;12.00;99.90;;;;;;4971105;28;19917;-89
2022/03/17 14:33:29;;;;;;;;;;;11.90;99.90;;;;;;4971132;28;19914;-90
2022/03/17 14:35:54;;;;;;;;;;;12.00;99.90;;;;;;4953887;28;19997;-90
2022/03/17 14:38:20;;;;;;;;;;;12.00;99.90;;;;;;4960769;28;19910;-89
2022/03/17 14:40:46;;;;;;;;;;;12.00;99.90;;;;;;4948032;28;20376;-89